createdAt,value
2024-01-11T00:03:36.891Z,-5.14
2024-01-11T00:08:36.838Z,-5.23
2024-01-11T00:13:36.754Z,-5.29
2024-01-11T00:18:36.728Z,-5.29
2024-01-11T00:23:36.653Z,-5.32
2024-01-11T00:28:36.582Z,-5.39
2024-01-11T00:33:36.614Z,-5.44
2024-01-11T00:38:36.645Z,-5.41
2024-01-11T00:43:36.458Z,-5.33
2024-01-11T00:48:36.561Z,-5.35
2024-01-11T00:53:36.466Z,-5.41
2024-01-11T00:58:36.319Z,-5.43
2024-01-11T01:03:36.348Z,-5.46
2024-01-11T01:08:36.288Z,-5.46
2024-01-11T01:13:36.161Z,-5.48
2024-01-11T01:18:36.133Z,-5.53
2024-01-11T01:23:36.152Z,-5.64
2024-01-11T01:28:35.991Z,-5.55
2024-01-11T01:33:36.104Z,-5.62
2024-01-11T01:38:35.964Z,-5.71
2024-01-11T01:43:35.852Z,-5.62
2024-01-11T01:48:35.963Z,-5.62
2024-01-11T01:53:35.823Z,-5.79
2024-01-11T01:58:35.702Z,-5.72
2024-01-11T02:03:35.714Z,-5.68
2024-01-11T02:08:35.687Z,-5.66
2024-01-11T02:13:35.516Z,-5.86
2024-01-11T02:18:35.538Z,-5.80
2024-01-11T02:23:35.470Z,-5.87
2024-01-11T02:28:35.370Z,-5.94
2024-01-11T02:33:35.424Z,-5.93
2024-01-11T02:38:35.311Z,-5.92
2024-01-11T02:43:35.226Z,-6.01
2024-01-11T02:48:35.258Z,-5.87
2024-01-11T02:53:35.289Z,-5.97
2024-01-11T02:58:35.040Z,-6.04
2024-01-11T03:03:35.094Z,-5.97
2024-01-11T03:08:35.043Z,-6.05
2024-01-11T03:13:34.911Z,-6.15
2024-01-11T03:18:34.888Z,-6.00
2024-01-11T03:23:34.896Z,-6.08
2024-01-11T03:28:34.745Z,-6.23
2024-01-11T03:33:34.825Z,-6.22
2024-01-11T03:38:34.754Z,-6.37
2024-01-11T03:43:34.609Z,-6.29
2024-01-11T03:48:34.616Z,-6.16
2024-01-11T03:53:34.582Z,-6.29
2024-01-11T03:58:34.492Z,-6.40
2024-01-11T04:03:34.425Z,-6.11
2024-01-11T04:08:34.541Z,-6.15
2024-01-11T04:13:34.305Z,-6.28
2024-01-11T04:18:34.479Z,-6.39
2024-01-11T04:23:34.277Z,-6.43
2024-01-11T04:28:34.161Z,-6.43
2024-01-11T04:33:34.123Z,-6.46
2024-01-11T04:38:34.201Z,-6.47
2024-01-11T04:43:33.983Z,-6.42
2024-01-11T04:48:34.045Z,-6.22
2024-01-11T04:53:33.942Z,-6.05
2024-01-11T04:58:33.806Z,-6.16
2024-01-11T05:03:33.924Z,-6.25
2024-01-11T05:08:33.761Z,-6.05
2024-01-11T05:13:33.657Z,-6.13
2024-01-11T05:18:35.366Z,-6.23
2024-01-11T05:23:33.677Z,-6.32
2024-01-11T05:28:33.502Z,-6.50
2024-01-11T05:33:33.635Z,-6.50
2024-01-11T05:38:33.528Z,-6.52
2024-01-11T05:43:33.453Z,-6.58
2024-01-11T05:48:33.396Z,-6.54
2024-01-11T05:53:33.280Z,-6.49
2024-01-11T05:58:33.201Z,-6.49
2024-01-11T06:03:33.251Z,-6.54
2024-01-11T06:08:33.204Z,-6.49
2024-01-11T06:13:33.119Z,-6.52
2024-01-11T06:18:33.289Z,-6.50
2024-01-11T06:23:33.151Z,-6.63
2024-01-11T06:28:35.351Z,-6.47
2024-01-11T06:33:33.122Z,-6.47
2024-01-11T06:38:32.938Z,-6.44
2024-01-11T06:43:32.865Z,-6.42
2024-01-11T06:48:32.894Z,-6.55
2024-01-11T06:53:32.819Z,-6.61
2024-01-11T06:58:32.698Z,-6.66
2024-01-11T07:03:32.693Z,-6.71
2024-01-11T07:08:32.613Z,-6.69
2024-01-11T07:13:32.602Z,-6.61
2024-01-11T07:18:32.585Z,-6.59
2024-01-11T07:23:32.491Z,-6.61
2024-01-11T07:28:32.506Z,-6.65
2024-01-11T07:33:32.504Z,-6.73
2024-01-11T07:38:32.221Z,-6.68
2024-01-11T07:43:38.432Z,-6.52
2024-01-11T07:48:33.136Z,-6.49
2024-01-11T07:53:32.043Z,-6.39
2024-01-11T07:58:32.045Z,-6.26
2024-01-11T08:03:32.052Z,-6.18
2024-01-11T08:08:32.041Z,-6.10
2024-01-11T08:13:31.841Z,-6.03
2024-01-11T08:18:31.808Z,-5.98
2024-01-11T08:23:31.733Z,-5.92
2024-01-11T08:28:31.667Z,-5.84
2024-01-11T08:33:31.720Z,-5.76
2024-01-11T08:38:31.617Z,-5.79
2024-01-11T08:43:31.591Z,-5.76
2024-01-11T08:48:31.746Z,-5.71
2024-01-11T08:53:31.468Z,-5.71
2024-01-11T08:58:31.372Z,-5.66
2024-01-11T09:03:31.429Z,-5.55
2024-01-11T09:08:31.344Z,-5.55
2024-01-11T09:13:31.216Z,-5.26
2024-01-11T09:18:31.358Z,-5.35
2024-01-11T09:23:31.277Z,-4.97
2024-01-11T09:28:31.071Z,-4.89
2024-01-11T09:33:31.174Z,-4.83
2024-01-11T09:38:30.985Z,-4.75
2024-01-11T09:43:30.889Z,-4.54
2024-01-11T09:48:30.899Z,-4.42
2024-01-11T09:53:30.855Z,-4.30
2024-01-11T09:58:30.715Z,-4.17
2024-01-11T10:03:30.757Z,-4.00
2024-01-11T10:08:30.714Z,-3.66
2024-01-11T10:13:30.557Z,-3.46
2024-01-11T10:18:30.578Z,-3.23
2024-01-11T10:23:30.761Z,-2.88
2024-01-11T10:28:30.360Z,-2.60
2024-01-11T10:33:30.434Z,-2.60
2024-01-11T10:38:30.408Z,-2.18
2024-01-11T10:43:30.269Z,-1.97
2024-01-11T10:48:30.331Z,-1.74
2024-01-11T10:53:31.113Z,-1.54
2024-01-11T10:58:30.265Z,-1.59
2024-01-11T11:03:30.123Z,-1.40
2024-01-11T11:08:30.003Z,-1.23
2024-01-11T11:13:29.984Z,-1.20
2024-01-11T11:18:29.953Z,-0.86
2024-01-11T11:23:29.873Z,-0.67
2024-01-11T11:28:29.779Z,-0.79
2024-01-11T11:33:29.765Z,-0.46
2024-01-11T11:38:30.719Z,-0.43
2024-01-11T11:43:29.645Z,-0.28
2024-01-11T11:48:29.576Z,-0.14
2024-01-11T11:53:29.560Z,0.04
2024-01-11T11:58:29.437Z,0.13
2024-01-11T12:03:29.410Z,0.04
2024-01-11T12:08:29.426Z,0.41
2024-01-11T12:13:29.301Z,0.26
2024-01-11T12:18:29.361Z,0.10
2024-01-11T12:23:29.203Z,0.15
2024-01-11T12:28:29.182Z,0.38
2024-01-11T12:33:29.306Z,0.41
2024-01-11T12:38:29.077Z,0.44
2024-01-11T12:43:29.037Z,0.61
2024-01-11T12:48:29.146Z,0.50
2024-01-11T12:53:28.878Z,0.75
2024-01-11T12:58:28.855Z,0.66
2024-01-11T13:03:29.035Z,0.68
2024-01-11T13:08:28.790Z,0.75
2024-01-11T13:13:28.701Z,0.87
2024-01-11T13:18:28.665Z,0.90
2024-01-11T13:23:28.609Z,1.02
2024-01-11T13:28:28.529Z,0.91
2024-01-11T13:33:28.777Z,0.90
2024-01-11T13:38:36.169Z,0.97
2024-01-11T13:43:28.350Z,0.94
2024-01-11T13:48:28.425Z,0.76
2024-01-11T13:53:28.215Z,0.88
2024-01-11T13:58:28.194Z,0.96
2024-01-11T14:03:28.136Z,0.87
2024-01-11T14:08:28.072Z,0.91
2024-01-11T14:13:28.001Z,0.86
2024-01-11T14:18:28.084Z,0.94
2024-01-11T14:23:27.899Z,0.79
2024-01-11T14:28:27.831Z,0.88
2024-01-11T14:33:27.990Z,1.08
2024-01-11T14:38:27.812Z,1.00
2024-01-11T14:43:27.733Z,0.91
2024-01-11T14:48:27.734Z,0.88
2024-01-11T14:53:27.597Z,0.90
2024-01-11T14:58:27.567Z,0.69
2024-01-11T15:03:27.537Z,0.78
2024-01-11T15:08:27.505Z,0.83
2024-01-11T15:13:27.416Z,0.66
2024-01-11T15:18:27.529Z,0.80
2024-01-11T15:23:27.418Z,0.80
2024-01-11T15:28:27.309Z,0.76
2024-01-11T15:33:27.394Z,0.90
2024-01-11T15:38:27.126Z,0.69
2024-01-11T15:43:27.101Z,0.58
2024-01-11T15:48:27.239Z,0.62
2024-01-11T15:53:27.005Z,0.61
2024-01-11T15:58:27.027Z,0.58
2024-01-11T16:03:26.937Z,0.32
2024-01-11T16:08:26.817Z,0.29
2024-01-11T16:13:26.713Z,0.26
2024-01-11T16:18:26.785Z,0.21
2024-01-11T16:23:26.708Z,0.11
2024-01-11T16:28:26.547Z,0.07
2024-01-11T16:33:26.563Z,-0.10
2024-01-11T16:38:26.655Z,-0.11
2024-01-11T16:43:26.454Z,-0.21
2024-01-11T16:48:26.389Z,0.03
2024-01-11T16:53:26.330Z,0.24
2024-01-11T16:58:26.240Z,0.35
2024-01-11T17:03:26.252Z,0.31
2024-01-11T17:08:26.285Z,0.42
2024-01-11T17:13:26.130Z,0.44
2024-01-11T17:18:26.201Z,0.68
2024-01-11T17:23:26.088Z,0.58
2024-01-11T17:28:27.222Z,0.61
2024-01-11T17:33:26.024Z,0.86
2024-01-11T17:38:25.812Z,0.75
2024-01-11T17:43:25.784Z,0.90
2024-01-11T17:48:25.966Z,0.86
2024-01-11T17:53:25.701Z,0.98
2024-01-11T17:58:25.579Z,1.04
2024-01-11T18:03:25.580Z,1.02
2024-01-11T18:08:25.476Z,1.06
2024-01-11T18:13:25.416Z,0.93
2024-01-11T18:18:25.418Z,1.05
2024-01-11T18:23:25.406Z,1.08
2024-01-11T18:28:25.290Z,1.02
2024-01-11T18:33:27.972Z,1.08
2024-01-11T18:38:25.183Z,1.08
2024-01-11T18:43:25.094Z,1.05
2024-01-11T18:48:25.138Z,1.16
2024-01-11T18:53:25.000Z,1.12
2024-01-11T18:58:25.303Z,1.09
2024-01-11T19:03:25.494Z,1.15
2024-01-11T19:08:25.180Z,1.22
2024-01-11T19:13:28.197Z,1.18
2024-01-11T19:18:25.037Z,1.14
2024-01-11T19:23:24.842Z,1.14
2024-01-11T19:28:24.715Z,1.18
2024-01-11T19:33:24.697Z,1.22
2024-01-11T19:38:24.513Z,1.27
2024-01-11T19:43:32.476Z,1.26
2024-01-11T19:48:24.503Z,1.26
2024-01-11T19:53:24.305Z,1.30
2024-01-11T19:58:24.641Z,1.34
2024-01-11T20:03:24.270Z,1.34
2024-01-11T20:08:24.195Z,1.37
2024-01-11T20:13:24.215Z,1.41
2024-01-11T20:18:25.001Z,1.40
2024-01-11T20:23:24.134Z,1.48
2024-01-11T20:28:24.014Z,1.42
2024-01-11T20:33:24.270Z,1.51
2024-01-11T20:38:23.885Z,1.50
2024-01-11T20:43:23.843Z,1.54
2024-01-11T20:48:23.842Z,1.52
2024-01-11T20:53:23.814Z,1.50
2024-01-11T20:58:23.698Z,1.52
2024-01-11T21:03:24.673Z,1.59
2024-01-11T21:08:23.597Z,1.54
2024-01-11T21:13:23.502Z,1.55
2024-01-11T21:18:23.516Z,1.48
2024-01-11T21:23:23.369Z,1.60
2024-01-11T21:28:23.296Z,1.62
2024-01-11T21:33:23.350Z,1.60
2024-01-11T21:38:23.397Z,1.59
2024-01-11T21:43:23.152Z,1.42
2024-01-11T21:48:23.100Z,1.50
2024-01-11T21:53:23.097Z,1.52
2024-01-11T21:58:23.092Z,1.59
2024-01-11T22:03:22.947Z,1.62
2024-01-11T22:08:23.180Z,1.65
2024-01-11T22:13:22.863Z,1.65
2024-01-11T22:18:22.921Z,1.66
2024-01-11T22:23:22.727Z,1.63
2024-01-11T22:28:22.646Z,1.60
2024-01-11T22:33:22.703Z,1.63
2024-01-11T22:38:22.557Z,1.68
2024-01-11T22:43:22.512Z,1.69
2024-01-11T22:48:22.576Z,1.68
2024-01-11T22:53:22.472Z,1.69
2024-01-11T22:58:22.286Z,1.73
2024-01-11T23:03:22.386Z,1.73
2024-01-11T23:08:22.220Z,1.69
2024-01-11T23:13:22.150Z,1.72
2024-01-11T23:18:22.185Z,1.73
2024-01-11T23:23:22.082Z,1.72
2024-01-11T23:28:22.032Z,1.73
2024-01-11T23:33:22.087Z,1.69
2024-01-11T23:38:21.886Z,1.73
2024-01-11T23:43:21.902Z,1.77
2024-01-11T23:48:21.825Z,1.77
2024-01-11T23:53:21.786Z,1.77
2024-01-11T23:58:21.673Z,1.72
